• Join FlightAware (Why Join?)
  • Login
  • US Flag 
03:50PM EST


 

Airport Tracker/Info


-or-


 

Live Flight TrackerFlight Track Log ✈ IFL511 ✈ 29-Jun-2013 ✈ CYMX - KPHN

Flight Track Log - Related Links

Times and Time Zones

All times are in EDT time to prevent confusion due to time zone crossing. See the IFL511 flight status page for this flight to view local times or setup timezone preferences in your user account.

Time Position Orientation Groundspeed Altitude Reporting Facility
EDT Latitude Longitude Course Direction KTS MPH feet Rate Location/Type
08:19AM 45.6000 -74.2167 249° West 280 322 14,200  Level Toronto Center
08:20AM 45.5667 -74.3000 240° Southwest 280 322 16,700 2,640 Climbing Toronto Center
08:21AM 45.5167 -74.4000 235° Southwest 290 334 19,500 2,400 Climbing Toronto Center
08:22AM 45.4833 -74.5000 245° Southwest 310 357 21,600 1,920 Climbing Toronto Center
08:23AM 45.4667 -74.6333 260° West 320 368 23,400 1,620 Climbing Toronto Center
08:24AM 45.3496 -75.2098 249° West  Level Estimated
08:24AM 45.4667 -74.7500 270° West 330 380 24,900  Level Toronto Center
08:25AM 45.4333 -74.9000 252° West 350 403 26,600 1,440 Climbing Toronto Center
08:26AM 45.4167 -75.0500 261° West 350 403 27,800 1,200 Climbing Toronto Center
08:27AM 45.4000 -75.1833 260° West 360 414 28,800 1,200 Climbing Montreal Center
08:27AM 45.4000 -75.1833 260° West 370 426 29,000 1,200 Climbing Toronto Center
08:28AM 45.3667 -75.3167 250° West 370 426 30,000 960 Climbing Montreal Center
08:29AM 45.3500 -75.4667 261° West 380 437 30,800 900 Climbing Montreal Center
08:30AM 45.3333 -75.6333 262° West 390 449 31,800 1,200 Climbing Montreal Center
08:31AM 45.3000 -75.7833 253° West 390 449 33,300 1,260 Climbing Montreal Center
08:32AM 45.2833 -75.9167 260° West 380 437 34,400 1,080 Climbing Montreal Center
08:33AM 45.2667 -76.0667 261° West 380 437 35,500 780 Climbing Montreal Center
08:34AM 45.2333 -76.2000 250° West 380 437 36,000 240 Climbing Montreal Center
08:35AM 45.2000 -76.3500 253° West 390 449 36,000  Level Montreal Center
08:36AM 45.1167 -76.4833 228° Southwest 420 483 36,000  Level Toronto Center
08:37AM 45.0667 -76.6333 245° Southwest 430 495 36,000  Level Toronto Center
08:38AM 45.0333 -76.8000 254° West 440 506 36,000  Level Toronto Center
08:39AM 44.9667 -76.9667 241° Southwest 450 518 36,000  Level Toronto Center
08:40AM 44.9167 -77.1333 247° West 460 529 36,000  Level Toronto Center
08:41AM 44.8500 -77.2833 238° Southwest 460 529 36,000  Level Toronto Center
08:42AM 44.8167 -77.4667 256° West 470 541 36,000  Level Toronto Center
08:43AM 44.7500 -77.6167 238° Southwest 470 541 36,000  Level Toronto Center
08:44AM 44.7000 -77.7833 247° West 470 541 36,000  Level Toronto Center
08:45AM 44.6333 -77.9500 241° Southwest 480 552 36,000  Level Toronto Center
08:46AM 44.5667 -78.1333 243° Southwest 480 552 36,000  Level Toronto Center
08:47AM 44.5167 -78.3000 247° West 480 552 36,000  Level Toronto Center
08:48AM 44.4500 -78.4333 235° Southwest 480 552 36,000  Level Toronto Center
08:49AM 44.4000 -78.6333 251° West 480 552 36,000  Level Toronto Center
08:50AM 44.3500 -78.8000 247° West 480 552 36,000  Level Toronto Center
08:51AM 44.2833 -78.9500 238° Southwest 480 552 36,000  Level Toronto Center
08:52AM 44.2167 -79.1167 241° Southwest 480 552 36,000  Level Toronto Center
08:53AM 44.1500 -79.3000 243° Southwest 480 552 36,000  Level Toronto Center
08:54AM 44.1000 -79.4667 247° West 480 552 36,000  Level Toronto Center
08:55AM 44.0333 -79.6167 238° Southwest 480 552 36,000  Level Toronto Center
08:56AM 43.9667 -79.8000 243° Southwest 490 564 36,000  Level Toronto Center
08:57AM 43.9000 -79.9500 238° Southwest 480 552 36,000  Level Toronto Center
08:58AM 43.8500 -80.1167 247° West 480 552 36,000  Level Toronto Center
08:59AM 43.7833 -80.3000 243° Southwest 480 552 36,000  Level Toronto Center
09:00AM 43.7333 -80.4667 248° West 480 552 36,000  Level Toronto Center
09:01AM 43.6667 -80.6167 238° Southwest 490 564 36,000 -840 Level Toronto Center
09:02AM 43.6000 -80.7833 241° Southwest 490 564 34,400 -2,040 Descending Toronto Center
09:03AM 43.5167 -80.9500 235° Southwest 490 564 32,000 -2,820 Descending Toronto Center
09:04AM 43.4667 -81.1000 245° Southwest 490 564 28,800 -4,200 Descending Toronto Center
09:05AM 43.3833 -81.2667 236° Southwest 470 541 23,700 -6,660 Descending Toronto Center
09:06AM 43.3000 -81.4000 229° Southwest 470 541 15,500 -6,060 Descending Toronto Center
09:07AM 43.2667 -81.5333 251° West 420 483 11,600 -2,760 Descending Toronto Center
09:08AM 43.2167 -81.6500 240° Southwest 340 391 10,000 -1,380 Descending Toronto Center
09:09AM 43.2000 -81.7333 255° West 300 345 8,900 -1,200 Descending Toronto Center
09:10AM 43.1667 -81.8333 245° Southwest 270 311 7,600 -1,200 Descending Toronto Center
09:11AM 43.1167 -81.9167 231° Southwest 260 299 6,500 -1,200 Descending Toronto Center
09:12AM 43.0833 -82.0333 249° West 270 311 5,300 -1,200 Descending Toronto Center
09:13AM 43.0500 -82.1000 236° Southwest 270 311 4,100 -660 Descending Toronto Center
09:14AM 43.0167 -82.1833 241° Southwest 250 288 4,000 -360 Descending Toronto Center
09:15AM 43.0333 -82.2833 283° West 220 253 3,400 -660 Descending Toronto Center
09:16AM 43.0500 -82.3667 285° West 240 276 2,700 -720 Descending Toronto Center
09:21AM 42.9516 -82.4815 236° Southwest  Level Estimated
09:28AM 42.9000 -82.5167 236° Southwest  Level FlightAware Approximate
09:29AM 42.9110 -82.5289 236° Southwest  Level Estimated